Time;durP1;ratioP1;P1;durP2;ratioP2;P2;SDS_P1;SDS_P2;PMS_P1;PMS_P2;Temp;Humidity;BMP_temperature;BMP_pressure;BME280_temperature;BME280_humidity;BME280_pressure;Samples;Min_cycle;Max_cycle;Signal;HPM_P1;HPM_P2
2024/04/06 00:03:09;;;;;;;1.75;1.30;;;18.80;99.90;;;;;;10146059;28;20077;-72
2024/04/06 00:07:59;;;;;;;5.68;2.00;;;18.80;99.90;;;;;;10135652;28;20087;-71
2024/04/06 00:12:50;;;;;;;2.40;1.70;;;18.70;99.90;;;;;;10137840;28;20024;-70
2024/04/06 00:17:41;;;;;;;5.20;2.22;;;18.60;99.90;;;;;;10142515;28;20073;-71
2024/04/06 00:22:31;;;;;;;4.75;2.60;;;18.60;99.90;;;;;;10140464;28;20449;-71
2024/04/06 00:27:22;;;;;;;4.88;2.42;;;18.50;99.90;;;;;;10142831;28;20028;-70
2024/04/06 00:32:13;;;;;;;9.32;2.60;;;18.50;99.90;;;;;;10151190;28;20086;-71
2024/04/06 00:37:04;;;;;;;4.25;1.85;;;18.50;99.90;;;;;;10144947;28;20064;-72
2024/04/06 00:41:55;;;;;;;5.70;1.90;;;18.50;99.90;;;;;;10136357;28;20032;-71
2024/04/06 00:46:46;;;;;;;4.15;1.92;;;18.50;99.90;;;;;;10135368;28;20039;-71
2024/04/06 00:51:36;;;;;;;3.45;1.95;;;18.40;99.90;;;;;;10135047;28;20025;-70
2024/04/06 00:56:27;;;;;;;2.65;1.90;;;18.40;99.90;;;;;;10134459;28;20055;-71
2024/04/06 01:01:17;;;;;;;2.85;1.80;;;18.40;99.90;;;;;;10139463;28;20043;-71
2024/04/06 01:06:08;;;;;;;4.57;2.30;;;18.50;99.90;;;;;;10146308;28;20029;-71
2024/04/06 01:11:00;;;;;;;3.45;1.63;;;18.50;99.90;;;;;;10146463;28;20675;-70
2024/04/06 01:15:51;;;;;;;3.65;1.73;;;18.40;99.90;;;;;;10158238;28;20040;-71
2024/04/06 01:20:45;;;;;;;2.92;1.80;;;18.40;99.90;;;;;;10152126;28;20032;-71
2024/04/06 01:25:36;;;;;;;3.55;1.73;;;18.40;99.90;;;;;;10134291;28;20019;-71
2024/04/06 01:30:27;;;;;;;2.95;1.92;;;18.30;99.90;;;;;;10140806;28;20048;-70
2024/04/06 01:35:18;;;;;;;3.75;1.88;;;18.30;99.90;;;;;;10139893;28;20125;-71
2024/04/06 01:40:09;;;;;;;2.47;1.58;;;18.30;99.90;;;;;;10145982;28;20024;-70
2024/04/06 01:44:59;;;;;;;5.35;1.52;;;18.30;99.90;;;;;;10149050;28;20028;-71
2024/04/06 01:49:50;;;;;;;2.10;1.40;;;18.30;99.90;;;;;;10152874;28;20098;-70
2024/04/06 01:54:42;;;;;;;1.77;1.48;;;18.30;99.90;;;;;;10156731;28;20074;-70
2024/04/06 01:59:35;;;;;;;5.45;1.58;;;18.20;99.90;;;;;;10154994;28;20016;-69
2024/04/06 02:04:25;;;;;;;3.33;1.80;;;18.10;99.90;;;;;;10140959;28;20397;-69
2024/04/06 02:09:16;;;;;;;2.60;1.90;;;18.10;99.90;;;;;;10153045;28;20139;-70
2024/04/06 02:14:07;;;;;;;3.17;1.65;;;18.10;99.90;;;;;;10147634;28;20135;-68
2024/04/06 02:18:57;;;;;;;2.25;1.40;;;18.10;99.90;;;;;;10153586;28;20024;-69
2024/04/06 02:23:48;;;;;;;3.08;1.63;;;18.10;99.90;;;;;;10153024;28;20016;-69
2024/04/06 02:28:39;;;;;;;2.17;1.27;;;18.10;99.90;;;;;;10151707;28;20028;-70
2024/04/06 02:33:30;;;;;;;3.15;1.90;;;18.10;99.90;;;;;;10146549;28;20070;-71
2024/04/06 02:38:21;;;;;;;2.97;1.70;;;18.10;99.90;;;;;;10137888;28;20490;-69
2024/04/06 02:43:11;;;;;;;2.90;1.63;;;18.10;99.90;;;;;;10141178;28;20031;-69
2024/04/06 02:48:02;;;;;;;2.17;1.40;;;18.10;99.90;;;;;;10141692;28;20088;-68
2024/04/06 02:52:53;;;;;;;2.53;1.50;;;18.00;99.90;;;;;;10140310;28;20199;-68
2024/04/06 02:57:43;;;;;;;2.75;1.50;;;17.90;99.90;;;;;;10139395;28;20048;-69
2024/04/06 03:02:34;;;;;;;1.52;1.10;;;17.90;99.90;;;;;;10141227;28;20037;-69
2024/04/06 03:07:26;;;;;;;2.88;1.63;;;17.90;99.90;;;;;;10148886;28;20033;-69
2024/04/06 03:12:16;;;;;;;3.00;1.38;;;17.90;99.90;;;;;;10149272;28;20497;-69
2024/04/06 03:17:07;;;;;;;2.22;1.80;;;17.80;99.90;;;;;;10128084;28;20177;-70
2024/04/06 03:21:58;;;;;;;2.65;1.75;;;17.70;99.90;;;;;;10141978;28;20032;-69
2024/04/06 03:26:48;;;;;;;2.72;1.67;;;17.70;99.90;;;;;;10137900;28;20083;-69
2024/04/06 03:31:39;;;;;;;2.70;1.80;;;17.60;99.90;;;;;;10142026;28;20377;-69
2024/04/06 03:36:29;;;;;;;2.75;1.88;;;17.50;99.90;;;;;;10147394;28;20040;-68
2024/04/06 03:41:20;;;;;;;4.15;1.50;;;17.50;99.90;;;;;;10143677;28;20024;-68
2024/04/06 03:46:11;;;;;;;2.60;1.90;;;17.40;99.90;;;;;;10138945;28;20488;-68
2024/04/06 03:51:02;;;;;;;2.70;1.42;;;17.30;99.90;;;;;;10136565;28;20574;-68
2024/04/06 03:55:52;;;;;;;3.50;1.83;;;17.30;99.90;;;;;;10141323;28;20045;-68
2024/04/06 04:00:43;;;;;;;3.58;2.10;;;17.30;99.90;;;;;;10143719;28;20043;-70
2024/04/06 04:05:33;;;;;;;3.47;1.50;;;17.20;99.90;;;;;;10139791;28;20044;-68
2024/04/06 04:10:24;;;;;;;2.00;1.27;;;17.10;99.90;;;;;;10140846;28;20131;-69
2024/04/06 04:15:15;;;;;;;2.67;1.70;;;17.00;99.90;;;;;;10126386;28;20052;-69
2024/04/06 04:20:08;;;;;;;3.33;1.33;;;16.90;99.90;;;;;;10140036;28;20064;-70
2024/04/06 04:24:58;;;;;;;3.67;1.63;;;16.90;99.90;;;;;;10134327;28;20049;-69
2024/04/06 04:29:49;;;;;;;2.08;1.52;;;16.90;99.90;;;;;;10133682;28;20044;-69
2024/04/06 04:34:40;;;;;;;2.88;1.42;;;16.90;99.90;;;;;;10144132;28;20067;-69
2024/04/06 04:39:31;;;;;;;2.25;1.02;;;16.90;99.90;;;;;;10138793;28;20021;-69
2024/04/06 04:44:23;;;;;;;4.35;1.90;;;16.90;99.90;;;;;;10142308;28;20129;-69
2024/04/06 04:49:13;;;;;;;3.35;1.40;;;16.90;99.90;;;;;;10142207;28;20371;-69
2024/04/06 04:54:05;;;;;;;2.97;1.83;;;16.90;99.90;;;;;;10142604;28;20040;-68
2024/04/06 04:58:55;;;;;;;2.10;1.48;;;16.90;99.90;;;;;;10152256;28;20482;-69
2024/04/06 05:03:46;;;;;;;3.40;1.83;;;16.80;99.90;;;;;;10144572;28;20033;-69
2024/04/06 05:08:36;;;;;;;1.83;1.42;;;16.80;99.90;;;;;;10151467;28;20071;-69
2024/04/06 05:13:27;;;;;;;2.95;1.45;;;16.70;99.90;;;;;;10132796;28;20107;-69
2024/04/06 05:18:19;;;;;;;2.00;1.20;;;16.70;99.90;;;;;;10150519;28;20055;-68
2024/04/06 05:23:10;;;;;;;3.17;1.52;;;16.70;99.90;;;;;;10152228;28;20016;-69
2024/04/06 05:28:00;;;;;;;4.10;1.95;;;16.60;99.90;;;;;;10131441;28;20127;-69
2024/04/06 05:32:51;;;;;;;2.90;1.52;;;16.70;99.90;;;;;;10163522;28;20035;-68
2024/04/06 05:37:41;;;;;;;2.60;1.98;;;16.60;99.90;;;;;;10158698;28;20044;-68
2024/04/06 05:42:32;;;;;;;6.05;1.60;;;16.70;99.90;;;;;;10161127;28;20035;-69
2024/04/06 05:47:23;;;;;;;3.20;1.80;;;16.70;99.90;;;;;;10151083;28;20028;-68
2024/04/06 05:52:13;;;;;;;2.72;1.67;;;16.70;99.90;;;;;;10149795;28;20020;-69
2024/04/06 05:57:04;;;;;;;3.08;1.77;;;16.70;99.90;;;;;;10141959;28;20070;-68
2024/04/06 06:01:55;;;;;;;2.65;1.40;;;16.80;99.90;;;;;;10146369;28;20691;-69
2024/04/06 06:06:46;;;;;;;2.40;1.45;;;16.80;99.90;;;;;;10126406;28;20132;-68
2024/04/06 06:11:36;;;;;;;2.03;1.20;;;16.80;99.90;;;;;;10140961;28;20094;-69
2024/04/06 06:16:27;;;;;;;1.77;1.40;;;16.80;99.90;;;;;;10139860;28;20052;-69
2024/04/06 06:21:17;;;;;;;2.92;1.38;;;16.90;99.90;;;;;;10142928;28;20116;-69
2024/04/06 06:26:08;;;;;;;2.33;1.60;;;17.00;99.90;;;;;;10148195;28;20512;-69
2024/04/06 06:31:00;;;;;;;1.80;1.00;;;17.00;99.90;;;;;;10147901;28;20028;-68
2024/04/06 06:35:52;;;;;;;2.53;1.48;;;17.10;99.90;;;;;;10147076;28;20040;-69
2024/04/06 06:40:43;;;;;;;3.22;1.30;;;17.10;99.90;;;;;;10144395;28;20025;-67
2024/04/06 06:45:33;;;;;;;2.63;1.67;;;17.20;99.90;;;;;;10140000;28;20036;-68
2024/04/06 06:50:24;;;;;;;2.67;2.08;;;17.30;99.90;;;;;;10123571;28;20029;-68
2024/04/06 06:55:15;;;;;;;2.50;1.00;;;17.30;99.90;;;;;;10142288;28;20037;-68
2024/04/06 07:00:06;;;;;;;2.10;1.33;;;17.40;99.90;;;;;;10145020;28;20023;-69
2024/04/06 07:04:57;;;;;;;2.70;1.00;;;17.40;99.90;;;;;;10142814;28;20035;-68
2024/04/06 07:09:48;;;;;;;1.30;1.05;;;17.50;99.90;;;;;;10122512;28;20044;-68
2024/04/06 07:14:39;;;;;;;1.40;1.30;;;17.50;99.90;;;;;;10141772;28;20044;-68
2024/04/06 07:19:30;;;;;;;1.92;0.98;;;17.60;99.90;;;;;;10123315;28;20037;-69
2024/04/06 07:24:21;;;;;;;2.92;1.35;;;17.50;99.90;;;;;;10137908;28;20691;-68
2024/04/06 07:29:11;;;;;;;4.72;1.33;;;17.60;99.90;;;;;;10139585;28;20048;-67
2024/04/06 07:34:02;;;;;;;2.67;1.45;;;17.60;99.90;;;;;;10145333;28;20028;-67
2024/04/06 07:38:53;;;;;;;1.83;1.20;;;17.60;99.90;;;;;;10142921;28;20056;-68
2024/04/06 07:43:43;;;;;;;1.13;1.02;;;17.60;99.90;;;;;;10138898;28;20025;-68
2024/04/06 07:48:34;;;;;;;1.40;1.30;;;17.70;99.90;;;;;;10136911;28;20524;-68
2024/04/06 07:53:24;;;;;;;1.23;1.10;;;17.70;99.90;;;;;;10159274;28;20032;-69
2024/04/06 07:58:15;;;;;;;2.15;0.90;;;17.70;99.90;;;;;;10160873;28;20020;-69
2024/04/06 08:03:06;;;;;;;5.75;1.52;;;17.80;99.90;;;;;;10152464;28;20056;-69
2024/04/06 08:07:57;;;;;;;3.05;1.52;;;17.80;99.90;;;;;;10139341;28;20073;-67
2024/04/06 08:12:55;;;;;;;1.67;1.35;;;17.70;99.90;;;;;;10135270;28;20504;-67
2024/04/06 08:17:50;;;;;;;2.97;1.20;;;17.80;99.90;;;;;;10163638;28;20661;-68
2024/04/06 08:22:40;;;;;;;1.70;1.10;;;17.80;99.90;;;;;;10122325;28;20025;-67
2024/04/06 08:27:35;;;;;;;3.70;1.70;;;17.80;99.90;;;;;;10146657;28;20032;-67
2024/04/06 08:32:28;;;;;;;2.10;1.42;;;17.90;99.90;;;;;;10144074;28;20111;-68
2024/04/06 08:37:19;;;;;;;1.73;1.23;;;17.90;99.90;;;;;;10146906;28;20097;-68
2024/04/06 08:42:16;;;;;;;2.90;1.50;;;18.00;99.90;;;;;;10149500;28;20032;-67
2024/04/06 08:47:12;;;;;;;1.20;1.10;;;18.10;99.90;;;;;;10144951;28;20021;-68
2024/04/06 08:52:03;;;;;;;1.13;0.82;;;18.20;99.90;;;;;;10151984;28;20060;-67
2024/04/06 08:56:56;;;;;;;1.75;1.10;;;18.30;99.90;;;;;;10155031;28;20067;-69
2024/04/06 09:01:46;;;;;;;1.20;1.02;;;18.30;99.90;;;;;;10151932;28;20025;-68
2024/04/06 09:06:39;;;;;;;1.85;1.02;;;18.40;99.90;;;;;;10139980;28;20032;-67
2024/04/06 09:11:30;;;;;;;2.25;0.95;;;18.50;99.90;;;;;;10166543;28;20090;-67
2024/04/06 09:16:21;;;;;;;2.88;1.27;;;18.60;99.90;;;;;;10164424;28;20103;-67
2024/04/06 09:21:12;;;;;;;1.63;1.02;;;18.70;99.90;;;;;;10156086;28;20074;-68
2024/04/06 09:26:03;;;;;;;1.40;1.05;;;18.70;99.90;;;;;;10155710;28;20119;-68
2024/04/06 09:30:58;;;;;;;6.93;1.75;;;18.80;99.90;;;;;;10164237;28;20438;-68
2024/04/06 09:35:49;;;;;;;1.52;1.02;;;18.90;99.90;;;;;;10138638;28;20032;-69
2024/04/06 09:40:44;;;;;;;2.03;1.05;;;19.10;99.90;;;;;;10143644;28;20519;-67
2024/04/06 09:45:36;;;;;;;;;;;19.20;99.90;;;;;;10146586;28;20040;-67
2024/04/06 09:50:32;;;;;;;2.25;1.50;;;19.40;99.90;;;;;;10148929;28;19932;-66
2024/04/06 09:55:29;;;;;;;1.17;1.05;;;19.50;99.90;;;;;;10142306;28;20039;-68
2024/04/06 10:00:21;;;;;;;1.63;1.08;;;19.80;99.90;;;;;;10146900;28;20421;-69
2024/04/06 10:05:12;;;;;;;2.30;1.00;;;19.80;99.90;;;;;;10129554;28;20028;-68
2024/04/06 10:10:07;;;;;;;1.23;0.93;;;19.90;99.90;;;;;;10146404;28;20060;-67
2024/04/06 10:15:03;;;;;;;2.88;0.90;;;20.00;99.90;;;;;;10145944;28;20043;-68
2024/04/06 10:19:54;;;;;;;1.60;1.13;;;20.00;99.90;;;;;;10119694;28;20039;-68
2024/04/06 10:24:54;;;;;;;3.28;1.33;;;20.00;99.90;;;;;;10141243;28;20037;-68
2024/04/06 10:29:47;;;;;;;1.15;0.70;;;20.20;99.90;;;;;;10160919;28;20546;-67
2024/04/06 10:34:37;;;;;;;1.17;0.82;;;20.20;99.90;;;;;;10135910;28;20135;-68
2024/04/06 10:39:28;;;;;;;1.88;0.93;;;20.40;99.90;;;;;;10148168;28;20107;-68
2024/04/06 10:44:19;;;;;;;2.08;1.30;;;20.60;99.90;;;;;;10141456;28;20027;-68
2024/04/06 10:49:11;;;;;;;0.85;0.68;;;20.70;99.90;;;;;;10118702;28;20032;-66
2024/04/06 10:54:02;;;;;;;1.33;1.10;;;20.60;99.90;;;;;;10140786;28;20505;-67
2024/04/06 10:58:53;;;;;;;1.42;0.88;;;20.60;99.90;;;;;;10150326;28;20029;-68
2024/04/06 11:03:47;;;;;;;1.55;0.98;;;20.60;99.90;;;;;;10146278;28;20028;-67
2024/04/06 11:08:40;;;;;;;0.90;0.75;;;20.70;99.90;;;;;;10146087;28;20042;-68
2024/04/06 11:13:31;;;;;;;2.50;0.90;;;20.70;99.90;;;;;;10139961;28;20033;-68
2024/04/06 11:18:21;;;;;;;1.25;0.90;;;20.80;99.90;;;;;;10144882;28;20037;-67
2024/04/06 11:23:19;;;;;;;2.15;0.88;;;20.90;99.90;;;;;;10129487;28;20032;-68
2024/04/06 11:28:10;;;;;;;1.30;0.98;;;21.10;99.90;;;;;;10149704;28;20108;-67
2024/04/06 11:33:00;;;;;;;1.52;1.02;;;21.20;99.90;;;;;;10125541;28;20123;-69
2024/04/06 11:37:51;;;;;;;3.45;1.33;;;21.20;99.90;;;;;;10140102;28;20041;-69
2024/04/06 11:42:41;;;;;;;1.58;1.10;;;21.20;99.90;;;;;;10153304;28;20511;-68
2024/04/06 11:47:32;;;;;;;2.47;0.98;;;21.20;99.90;;;;;;10161714;28;20036;-67
2024/04/06 11:52:23;;;;;;;4.13;1.23;;;21.60;99.90;;;;;;10152505;28;20025;-66
2024/04/06 11:57:13;;;;;;;1.00;0.65;;;21.60;99.90;;;;;;10139328;28;20047;-69
2024/04/06 12:02:04;;;;;;;1.58;1.10;;;21.90;99.90;;;;;;10158379;28;20023;-66
2024/04/06 12:06:56;;;;;;;1.52;0.70;;;22.00;99.90;;;;;;10136818;28;20406;-67
2024/04/06 12:11:47;;;;;;;1.25;0.80;;;22.10;99.90;;;;;;10142793;28;20537;-68
2024/04/06 12:16:38;;;;;;;1.33;0.75;;;22.30;99.90;;;;;;10141592;28;20036;-68
2024/04/06 12:21:29;;;;;;;1.33;0.70;;;22.40;99.90;;;;;;10137425;28;20039;-68
2024/04/06 12:26:19;;;;;;;1.02;0.80;;;22.60;99.90;;;;;;10130485;28;20067;-68
2024/04/06 12:31:10;;;;;;;1.83;1.08;;;22.60;99.90;;;;;;10142477;28;20025;-66
2024/04/06 12:36:01;;;;;;;1.17;0.75;;;22.60;99.90;;;;;;10147190;28;20651;-69
2024/04/06 12:40:52;;;;;;;2.08;0.75;;;22.70;99.90;;;;;;10149398;28;20213;-67
2024/04/06 12:45:43;;;;;;;1.80;1.02;;;22.90;99.90;;;;;;10149977;28;20518;-67
2024/04/06 12:50:34;;;;;;;0.80;0.63;;;23.10;99.90;;;;;;10136558;28;20060;-67
2024/04/06 12:55:25;;;;;;;1.08;0.70;;;23.20;99.90;;;;;;10135342;28;20655;-68
2024/04/06 13:00:15;;;;;;;2.00;1.17;;;23.40;99.90;;;;;;10136164;28;20505;-67
2024/04/06 13:05:06;;;;;;;1.40;0.75;;;23.50;99.90;;;;;;10130715;28;20492;-68
2024/04/06 13:10:00;;;;;;;1.33;0.63;;;23.80;99.90;;;;;;10141971;28;20060;-68
2024/04/06 13:14:51;;;;;;;1.15;0.65;;;24.00;99.90;;;;;;10142517;28;20616;-68
2024/04/06 13:19:42;;;;;;;1.83;0.60;;;24.10;99.90;;;;;;10151936;28;20028;-69
2024/04/06 13:24:33;;;;;;;3.20;1.08;;;24.20;99.90;;;;;;10154068;28;20041;-67
2024/04/06 13:29:23;;;;;;;2.28;0.90;;;24.40;99.90;;;;;;10156524;28;20473;-67
2024/04/06 13:34:14;;;;;;;1.10;0.55;;;24.60;99.90;;;;;;10156265;28;20105;-67
2024/04/06 13:39:07;;;;;;;1.27;0.80;;;24.80;99.90;;;;;;10150111;28;20041;-68
2024/04/06 13:43:58;;;;;;;1.17;0.60;;;25.10;99.90;;;;;;10143974;28;20578;-68
2024/04/06 13:48:48;;;;;;;2.15;0.57;;;25.50;99.90;;;;;;10147367;28;20029;-68
2024/04/06 13:53:42;;;;;;;1.27;0.63;;;25.60;99.90;;;;;;10146220;28;20025;-67
2024/04/06 13:58:33;;;;;;;1.00;0.70;;;25.90;99.90;;;;;;10141618;28;20122;-69
2024/04/06 14:03:23;;;;;;;1.92;0.90;;;26.10;99.90;;;;;;10148491;28;20095;-68
2024/04/06 14:08:14;;;;;;;2.58;0.90;;;26.50;99.90;;;;;;10139830;28;20116;-66
2024/04/06 14:13:05;;;;;;;1.60;0.60;;;26.60;99.90;;;;;;10141494;28;20472;-66
2024/04/06 14:17:56;;;;;;;1.15;0.77;;;26.70;99.70;;;;;;10142923;28;20460;-68
2024/04/06 14:22:46;;;;;;;2.40;1.10;;;27.00;99.30;;;;;;10140553;28;20460;-69
2024/04/06 14:27:37;;;;;;;1.48;0.80;;;27.10;99.10;;;;;;10149085;28;20093;-66
2024/04/06 14:32:27;;;;;;;0.73;0.70;;;27.20;98.80;;;;;;10153086;28;20089;-66
2024/04/06 14:37:18;;;;;;;1.40;0.70;;;27.40;98.40;;;;;;10146615;28;20051;-67
2024/04/06 14:42:09;;;;;;;1.77;0.70;;;27.50;98.10;;;;;;10121986;28;20100;-67
2024/04/06 14:47:00;;;;;;;1.20;0.80;;;27.60;98.00;;;;;;10114649;28;20038;-66
2024/04/06 14:51:50;;;;;;;2.30;0.75;;;27.60;97.90;;;;;;10159794;28;20043;-68
2024/04/06 14:56:42;;;;;;;1.90;0.60;;;27.50;98.00;;;;;;10145132;28;20056;-68
2024/04/06 15:01:33;;;;;;;1.40;0.77;;;27.50;98.00;;;;;;10157123;28;20103;-68
2024/04/06 15:06:23;;;;;;;2.03;0.90;;;27.60;97.60;;;;;;10144984;28;20037;-68
2024/04/06 15:11:14;;;;;;;2.30;0.60;;;27.70;97.10;;;;;;10138912;28;20052;-67
2024/04/06 15:16:05;;;;;;;0.80;0.60;;;27.70;97.00;;;;;;10146133;28;20050;-67
2024/04/06 15:20:56;;;;;;;2.97;0.80;;;27.80;96.90;;;;;;10153660;28;20024;-67
2024/04/06 15:25:47;;;;;;;1.58;0.77;;;27.70;96.70;;;;;;10140686;28;20032;-67
2024/04/06 15:30:38;;;;;;;2.15;0.65;;;27.70;96.70;;;;;;10140884;28;20053;-67
2024/04/06 15:35:28;;;;;;;1.05;0.80;;;27.60;96.90;;;;;;10140115;28;20036;-66
2024/04/06 15:40:20;;;;;;;0.93;0.80;;;27.40;96.90;;;;;;10150244;28;20067;-66
2024/04/06 15:45:11;;;;;;;1.70;0.95;;;27.40;96.90;;;;;;10154412;28;20040;-66
2024/04/06 15:50:02;;;;;;;1.63;0.90;;;27.40;97.00;;;;;;10143512;28;20024;-66
2024/04/06 15:54:53;;;;;;;4.65;1.20;;;27.40;97.20;;;;;;10151172;28;20114;-65
2024/04/06 15:59:44;;;;;;;1.92;1.00;;;27.30;97.00;;;;;;10151772;28;20069;-67
2024/04/06 16:04:40;;;;;;;1.88;1.10;;;27.40;97.00;;;;;;10122270;28;20207;-66
2024/04/06 16:09:33;;;;;;;1.52;1.20;;;27.40;97.00;;;;;;10162188;28;20052;-68
2024/04/06 16:14:24;;;;;;;2.72;1.25;;;27.50;97.00;;;;;;10159866;28;20041;-67
2024/04/06 16:19:14;;;;;;;1.65;1.20;;;27.80;96.90;;;;;;10151496;28;20031;-66
2024/04/06 16:24:06;;;;;;;8.82;1.88;;;28.00;96.70;;;;;;10137511;28;20487;-66
2024/04/06 16:28:56;;;;;;;2.08;1.08;;;28.10;96.50;;;;;;10136891;28;20086;-66
2024/04/06 16:33:47;;;;;;;1.75;1.20;;;28.10;96.50;;;;;;10136483;28;20090;-67
2024/04/06 16:38:38;;;;;;;2.78;1.10;;;27.80;96.70;;;;;;10143453;28;20433;-67
2024/04/06 16:43:28;;;;;;;1.08;0.82;;;27.60;96.70;;;;;;10153718;28;20031;-67
2024/04/06 16:48:19;;;;;;;2.30;1.23;;;27.40;96.60;;;;;;10134022;28;20020;-67
2024/04/06 16:53:09;;;;;;;2.15;1.13;;;27.30;96.70;;;;;;10150325;28;20428;-67
2024/04/06 16:58:00;;;;;;;2.80;0.90;;;27.20;96.90;;;;;;10144606;28;20040;-65
2024/04/06 17:02:51;;;;;;;3.00;1.10;;;27.10;96.90;;;;;;10154563;28;20033;-67
2024/04/06 17:07:41;;;;;;;4.05;1.88;;;27.00;96.80;;;;;;10164049;28;20037;-66
2024/04/06 17:12:33;;;;;;;3.33;2.22;;;26.90;96.70;;;;;;10140650;28;20063;-66
2024/04/06 17:17:24;;;;;;;4.80;3.15;;;26.80;96.60;;;;;;10151748;28;20498;-66
2024/04/06 17:22:15;;;;;;;6.70;2.55;;;26.80;96.60;;;;;;10145885;28;20102;-66
2024/04/06 17:27:08;;;;;;;3.83;2.17;;;26.70;96.50;;;;;;10155662;28;20151;-66
2024/04/06 17:31:59;;;;;;;5.80;2.45;;;26.60;96.60;;;;;;10146453;28;20066;-66
2024/04/06 17:36:49;;;;;;;3.78;2.70;;;26.50;96.60;;;;;;10145768;28;20040;-66
2024/04/06 17:41:40;;;;;;;3.03;2.25;;;26.40;96.60;;;;;;10146381;28;20024;-67
2024/04/06 17:46:32;;;;;;;4.70;1.90;;;26.40;96.60;;;;;;10146904;28;20033;-67
2024/04/06 17:51:22;;;;;;;5.88;2.10;;;26.30;96.50;;;;;;10139245;28;20115;-67
2024/04/06 17:56:13;;;;;;;2.70;1.48;;;26.20;96.60;;;;;;10154980;28;20111;-68
2024/04/06 18:01:03;;;;;;;3.92;1.92;;;26.10;96.60;;;;;;10131174;28;20070;-67
2024/04/06 18:05:54;;;;;;;5.75;2.50;;;26.00;96.70;;;;;;10147035;28;20029;-67
2024/04/06 18:10:45;;;;;;;5.45;2.78;;;25.90;96.60;;;;;;10148168;28;20059;-67
2024/04/06 18:15:36;;;;;;;5.93;2.58;;;25.90;96.60;;;;;;10141650;28;20402;-67
2024/04/06 18:20:27;;;;;;;5.32;3.65;;;25.80;96.60;;;;;;10149846;28;20023;-67
2024/04/06 18:25:18;;;;;;;3.53;2.65;;;25.80;96.60;;;;;;10169670;28;20040;-67
2024/04/06 18:30:09;;;;;;;6.45;4.25;;;25.80;96.70;;;;;;10143261;28;20035;-67
2024/04/06 18:34:59;;;;;;;8.05;3.65;;;25.70;96.70;;;;;;10145912;28;20638;-66
2024/04/06 18:39:51;;;;;;;5.68;3.50;;;25.60;96.70;;;;;;10139019;28;20078;-66
2024/04/06 18:44:42;;;;;;;8.48;4.72;;;25.60;96.80;;;;;;10147904;28;20025;-66
2024/04/06 18:49:33;;;;;;;6.43;4.07;;;25.60;96.90;;;;;;10149979;28;20457;-67
2024/04/06 18:54:23;;;;;;;8.73;4.55;;;25.50;96.90;;;;;;10149350;28;20198;-67
2024/04/06 18:59:14;;;;;;;5.57;3.67;;;25.50;96.90;;;;;;10153338;28;20036;-67
2024/04/06 19:04:05;;;;;;;9.13;4.53;;;25.50;96.90;;;;;;10143762;28;20031;-67
2024/04/06 19:08:56;;;;;;;7.93;3.83;;;25.50;97.00;;;;;;10147273;28;20053;-67
2024/04/06 19:13:46;;;;;;;5.10;3.83;;;25.50;97.00;;;;;;10146173;28;20034;-68
2024/04/06 19:18:37;;;;;;;6.03;3.35;;;25.40;97.00;;;;;;10153158;28;20052;-68
2024/04/06 19:23:28;;;;;;;6.35;4.18;;;25.40;97.00;;;;;;10149522;28;20029;-66
2024/04/06 19:28:18;;;;;;;5.47;4.20;;;25.40;97.00;;;;;;10127521;28;20029;-65
2024/04/06 19:33:09;;;;;;;6.40;3.35;;;25.40;97.00;;;;;;10170908;28;20031;-67
2024/04/06 19:38:00;;;;;;;6.63;3.03;;;25.30;97.00;;;;;;10162746;28;20044;-68
2024/04/06 19:42:50;;;;;;;4.90;3.58;;;25.30;97.00;;;;;;10146902;28;20516;-69
2024/04/06 19:47:41;;;;;;;6.38;3.83;;;25.30;96.90;;;;;;10124797;28;20202;-69
2024/04/06 19:52:32;;;;;;;8.85;3.47;;;25.20;97.00;;;;;;10134412;28;20512;-68
2024/04/06 19:57:22;;;;;;;19.30;3.97;;;25.10;96.90;;;;;;10139886;28;20044;-69
2024/04/06 20:02:13;;;;;;;5.90;3.28;;;25.10;96.90;;;;;;10146130;28;20035;-69
2024/04/06 20:07:04;;;;;;;6.78;3.50;;;25.10;96.90;;;;;;10138081;28;20048;-68
2024/04/06 20:11:54;;;;;;;10.95;3.60;;;25.10;96.90;;;;;;10141012;28;20044;-68
2024/04/06 20:16:45;;;;;;;7.15;3.10;;;25.10;96.90;;;;;;10150284;28;20786;-69
2024/04/06 20:21:36;;;;;;;6.30;3.63;;;25.00;96.80;;;;;;10133406;28;20028;-69
2024/04/06 20:26:26;;;;;;;4.07;2.95;;;25.00;96.90;;;;;;10148096;28;20034;-69
2024/04/06 20:31:17;;;;;;;4.13;2.88;;;24.90;96.80;;;;;;10149595;28;20384;-68
2024/04/06 20:36:08;;;;;;;4.65;2.72;;;24.90;96.80;;;;;;10140908;28;20500;-68
2024/04/06 20:41:00;;;;;;;5.78;2.97;;;24.80;96.80;;;;;;10134273;28;20057;-68
2024/04/06 20:45:50;;;;;;;5.10;2.83;;;24.80;96.80;;;;;;10135688;28;20040;-68
2024/04/06 20:50:41;;;;;;;5.85;2.95;;;24.80;96.80;;;;;;10137879;28;20032;-69
2024/04/06 20:55:32;;;;;;;5.05;2.85;;;24.70;96.80;;;;;;10138239;28;20450;-67
2024/04/06 21:00:23;;;;;;;6.68;2.80;;;24.60;96.90;;;;;;10121418;28;20020;-68
2024/04/06 21:05:13;;;;;;;6.40;3.20;;;24.50;96.90;;;;;;10138959;28;20039;-68
2024/04/06 21:10:04;;;;;;;5.05;2.33;;;24.50;96.80;;;;;;10136388;28;20045;-68
2024/04/06 21:15:02;;;;;;;4.18;2.30;;;24.40;96.70;;;;;;10144373;28;20131;-69
2024/04/06 21:19:52;;;;;;;3.78;2.38;;;24.40;96.60;;;;;;10135667;28;20600;-69
2024/04/06 21:24:43;;;;;;;5.55;3.00;;;24.40;96.50;;;;;;10146883;28;20092;-69
2024/04/06 21:29:34;;;;;;;8.80;3.40;;;24.30;96.50;;;;;;10140600;28;20032;-67
2024/04/06 21:34:24;;;;;;;6.38;2.90;;;24.20;96.50;;;;;;10154077;28;20040;-69
2024/04/06 21:39:15;;;;;;;5.28;2.10;;;24.20;96.40;;;;;;10148176;28;20087;-66
2024/04/06 21:44:05;;;;;;;7.18;2.85;;;24.10;96.30;;;;;;10132776;28;20525;-69
2024/04/06 21:48:56;;;;;;;7.97;3.70;;;24.00;96.30;;;;;;10146106;28;20067;-68
2024/04/06 21:53:47;;;;;;;4.70;2.38;;;24.00;96.30;;;;;;10138173;28;20025;-70
2024/04/06 21:58:37;;;;;;;4.85;2.17;;;23.90;96.20;;;;;;10143096;28;20044;-68
2024/04/06 22:03:28;;;;;;;4.80;2.28;;;23.80;96.20;;;;;;10146989;28;20024;-67
2024/04/06 22:08:19;;;;;;;5.65;2.20;;;23.80;96.10;;;;;;10138876;28;20053;-67
2024/04/06 22:13:10;;;;;;;7.40;2.28;;;23.80;96.00;;;;;;10140296;28;20134;-67
2024/04/06 22:18:01;;;;;;;6.63;2.10;;;23.70;95.90;;;;;;10143534;28;20064;-67
2024/04/06 22:22:52;;;;;;;4.18;2.50;;;23.70;95.90;;;;;;10153545;28;20043;-68
2024/04/06 22:27:42;;;;;;;4.60;1.70;;;23.70;95.80;;;;;;10151254;28;20527;-69
2024/04/06 22:32:33;;;;;;;2.17;1.65;;;23.60;95.60;;;;;;10150883;28;20024;-66
2024/04/06 22:37:24;;;;;;;3.13;1.70;;;23.60;95.50;;;;;;10150021;28;20044;-67
2024/04/06 22:42:14;;;;;;;4.28;2.00;;;23.60;95.40;;;;;;10156267;28;20029;-66
2024/04/06 22:47:06;;;;;;;2.95;1.58;;;23.60;95.30;;;;;;10160041;28;20064;-66
2024/04/06 22:51:56;;;;;;;3.75;1.92;;;23.60;95.10;;;;;;10157524;28;20103;-67
2024/04/06 22:56:47;;;;;;;2.90;1.33;;;23.50;95.00;;;;;;10143444;28;20116;-67
2024/04/06 23:01:38;;;;;;;3.63;1.63;;;23.40;94.80;;;;;;10137911;28;20588;-67
2024/04/06 23:06:28;;;;;;;4.38;1.70;;;23.40;94.60;;;;;;10160979;28;20059;-66
2024/04/06 23:11:19;;;;;;;3.72;1.42;;;23.50;94.50;;;;;;10149079;28;20048;-67
2024/04/06 23:16:10;;;;;;;6.18;2.05;;;23.50;94.30;;;;;;10154287;28;20044;-68
2024/04/06 23:21:00;;;;;;;2.90;1.42;;;23.50;94.10;;;;;;10142724;28;20040;-69
2024/04/06 23:25:51;;;;;;;2.00;1.75;;;23.40;94.00;;;;;;10140259;28;20627;-67
2024/04/06 23:30:43;;;;;;;5.15;1.48;;;23.30;94.00;;;;;;10139844;28;20024;-67
2024/04/06 23:35:40;;;;;;;3.33;1.45;;;23.10;94.10;;;;;;10134661;28;20041;-66
2024/04/06 23:40:32;;;;;;;3.28;1.63;;;23.00;94.20;;;;;;10145563;28;20029;-66
2024/04/06 23:45:22;;;;;;;3.65;1.48;;;22.90;94.20;;;;;;10148619;28;20090;-67
2024/04/06 23:50:13;;;;;;;3.42;1.58;;;22.90;94.40;;;;;;10151879;28;20036;-66
2024/04/06 23:55:05;;;;;;;2.08;1.58;;;22.80;94.40;;;;;;10141131;28;20583;-67
2024/04/06 23:59:56;;;;;;;2.75;1.58;;;22.80;94.40;;;;;;10140369;28;20041;-67
